Shannon Dann — WCD6367 — position and weather

sailwx.info

Track history (hours):
 
Tides and Currents Weather Stations Pressure Air Temp Water Temp Dewpoint Dewpoint Depression Visibility Wind Speed Wind Dir Waves Ship Positions

Shannon Dann

Owner: Dann Ocean Towing, TAMPA, FL. More information available from US FCC via Universal Licensing System and Coast Guard Vessel Documentation Center.

Last reported at 2017-Sep-24 13:33 UTC. Time now 2017-Sep-24 19:34 UTC.
Position N 36°58' W 075°29'.

Length 30 m; draft 4 m.

Type: Tow > 200 m length. MMSI: 338533000.

Date/timePositionNaut miles runAvg speedWind from/ knotsBaromVisibWave heightAir tempDewpointWater temp
2017-Sep-24 13:33N 36°58' W 075°29'0 5.2
2017-Sep-24 13:30N 36°58' W 075°29'3 5.4
2017-Sep-24 13:00N 36°55' W 075°30'  
2017-Sep-19 14:24N 27°01' W 080°00'2 5.2
2017-Sep-19 14:00N 26°59' W 079°59'3 5.3
2017-Sep-19 13:30N 26°56' W 079°59'3 5.3
2017-Sep-19 12:59N 26°54' W 079°59'29 5.8
2017-Sep-19 07:53N 26°24' W 079°58'2 4.6
2017-Sep-19 07:30N 26°22' W 079°58'2 4.7
2017-Sep-19 07:00N 26°20' W 079°58'3 5.0
2017-Sep-19 06:30N 26°17' W 079°59'3 5.9
2017-Sep-19 06:00N 26°15' W 079°59'3 6.9
2017-Sep-19 05:30N 26°11' W 079°60'3 6.8
2017-Sep-19 05:00N 26°08' W 079°60'3 6.7
2017-Sep-19 04:30N 26°04' W 080°00'3 6.2
2017-Sep-19 04:00N 26°01' W 080°00'3 6.1
2017-Sep-19 03:30N 25°58' W 080°01'3 6.5
2017-Sep-19 03:00N 25°55' W 080°01'3 6.5
2017-Sep-19 02:30N 25°52' W 080°01'3 6.4
2017-Sep-19 02:00N 25°49' W 080°02'3 6.4
2017-Sep-19 01:30N 25°45' W 080°02'3 6.3
2017-Sep-19 01:00N 25°42' W 080°03'3 6.2
2017-Sep-19 00:30N 25°39' W 080°03'3 6.1
2017-Sep-19 00:00N 25°36' W 080°03'3 5.8
2017-Sep-18 23:30N 25°33' W 080°04'3 5.5
2017-Sep-18 23:00N 25°31' W 080°04'  
Track history (hours):
 
Tides and Currents Weather Stations Pressure Air Temp Water Temp Dewpoint Dewpoint Depression Visibility Wind Speed Wind Dir Waves Ship Positions

Shannon Dann

Owner: Dann Ocean Towing, TAMPA, FL. More information available from US FCC via Universal Licensing System and Coast Guard Vessel Documentation Center.

Last reported at 2017-Sep-24 13:33 UTC. Time now 2017-Sep-24 19:34 UTC.
Position N 36°58' W 075°29'.

Length 30 m; draft 4 m.

Type: Tow > 200 m length. MMSI: 338533000.

Date/timePositionNaut miles runAvg speedWind from/ knotsBaromVisibWave heightAir tempDewpointWater temp
2017-Sep-24 13:33N 36°58' W 075°29'0 5.2
2017-Sep-24 13:30N 36°58' W 075°29'3 5.4
2017-Sep-24 13:00N 36°55' W 075°30'  
2017-Sep-19 14:24N 27°01' W 080°00'2 5.2
2017-Sep-19 14:00N 26°59' W 079°59'3 5.3
2017-Sep-19 13:30N 26°56' W 079°59'3 5.3
2017-Sep-19 12:59N 26°54' W 079°59'29 5.8
2017-Sep-19 07:53N 26°24' W 079°58'2 4.6
2017-Sep-19 07:30N 26°22' W 079°58'2 4.7
2017-Sep-19 07:00N 26°20' W 079°58'3 5.0
2017-Sep-19 06:30N 26°17' W 079°59'3 5.9
2017-Sep-19 06:00N 26°15' W 079°59'3 6.9
2017-Sep-19 05:30N 26°11' W 079°60'3 6.8
2017-Sep-19 05:00N 26°08' W 079°60'3 6.7
2017-Sep-19 04:30N 26°04' W 080°00'3 6.2
2017-Sep-19 04:00N 26°01' W 080°00'3 6.1
2017-Sep-19 03:30N 25°58' W 080°01'3 6.5
2017-Sep-19 03:00N 25°55' W 080°01'3 6.5
2017-Sep-19 02:30N 25°52' W 080°01'3 6.4
2017-Sep-19 02:00N 25°49' W 080°02'3 6.4
2017-Sep-19 01:30N 25°45' W 080°02'3 6.3
2017-Sep-19 01:00N 25°42' W 080°03'3 6.2
2017-Sep-19 00:30N 25°39' W 080°03'3 6.1
2017-Sep-19 00:00N 25°36' W 080°03'3 5.8
2017-Sep-18 23:30N 25°33' W 080°04'3 5.5
2017-Sep-18 23:00N 25°31' W 080°04'  

Dump ship's entire track history